createdAt,value
2024-03-02T00:00:52.359Z,12.62
2024-03-02T00:03:21.121Z,12.66
2024-03-02T00:05:52.669Z,12.66
2024-03-02T00:08:26.451Z,12.52
2024-03-02T00:10:53.798Z,12.55
2024-03-02T00:13:21.525Z,12.58
2024-03-02T00:15:49.528Z,12.79
2024-03-02T00:18:21.351Z,12.65
2024-03-02T00:20:48.157Z,12.67
2024-03-02T00:23:16.481Z,12.84
2024-03-02T00:25:44.969Z,12.89
2024-03-02T00:28:22.117Z,12.92
2024-03-02T00:31:07.019Z,12.86
2024-03-02T00:33:35.906Z,12.96
2024-03-02T00:36:04.251Z,12.78
2024-03-02T00:38:31.596Z,12.26
2024-03-02T00:40:59.228Z,11.93
2024-03-02T00:43:47.905Z,11.93
2024-03-02T00:46:18.484Z,11.76
2024-03-02T00:48:57.184Z,11.59
2024-03-02T00:51:25.450Z,11.52
2024-03-02T00:53:53.602Z,11.27
2024-03-02T00:56:20.445Z,11.24
2024-03-02T00:58:47.102Z,11.07
2024-03-02T01:01:13.811Z,11.09
2024-03-02T01:03:40.760Z,11.23
2024-03-02T01:06:08.807Z,11.02
2024-03-02T01:08:35.578Z,11.15
2024-03-02T01:11:02.268Z,11.06
2024-03-02T01:13:28.955Z,11.08
2024-03-02T01:15:55.743Z,10.84
2024-03-02T01:18:23.315Z,10.76
2024-03-02T01:20:52.535Z,11.02
2024-03-02T01:23:20.860Z,11.02
2024-03-02T01:25:48.176Z,10.98
2024-03-02T01:28:14.956Z,11.05
2024-03-02T01:30:41.729Z,10.77
2024-03-02T01:33:08.437Z,10.90
2024-03-02T01:35:35.925Z,10.91
2024-03-02T01:38:02.512Z,11.00
2024-03-02T01:40:30.438Z,11.02
2024-03-02T01:42:59.066Z,11.09
2024-03-02T01:45:25.728Z,11.11
2024-03-02T01:47:52.640Z,10.98
2024-03-02T01:50:26.489Z,10.92
2024-03-02T01:52:53.198Z,10.85
2024-03-02T01:55:19.765Z,10.81
2024-03-02T01:57:48.923Z,10.90
2024-03-02T02:00:16.467Z,11.04
2024-03-02T02:02:43.133Z,10.85
2024-03-02T02:05:10.148Z,11.00
2024-03-02T02:07:36.884Z,10.87
2024-03-02T02:10:03.813Z,11.00
2024-03-02T02:12:30.497Z,11.20
2024-03-02T02:14:58.595Z,11.05
2024-03-02T02:17:25.289Z,10.92
2024-03-02T02:19:51.860Z,11.15
2024-03-02T02:22:19.772Z,11.04
2024-03-02T02:24:46.460Z,10.86
2024-03-02T02:27:16.165Z,10.87
2024-03-02T02:29:43.293Z,11.01
2024-03-02T02:32:09.935Z,10.99
2024-03-02T02:34:36.556Z,10.91
2024-03-02T02:37:03.144Z,10.75
2024-03-02T02:39:31.194Z,10.71
2024-03-02T02:41:57.848Z,10.56
2024-03-02T02:44:24.476Z,10.55
2024-03-02T02:46:50.983Z,10.60
2024-03-02T02:49:18.189Z,10.72
2024-03-02T02:51:44.821Z,10.52
2024-03-02T02:54:11.532Z,10.55
2024-03-02T02:56:39.475Z,10.43
2024-03-02T02:59:06.164Z,10.53
2024-03-02T03:01:32.843Z,10.64
2024-03-02T03:03:59.608Z,10.76
2024-03-02T03:06:26.230Z,10.50
2024-03-02T03:08:52.759Z,10.45
2024-03-02T03:11:19.515Z,10.62
2024-03-02T03:13:47.531Z,10.47
2024-03-02T03:16:14.169Z,10.49
2024-03-02T03:18:40.874Z,10.40
2024-03-02T03:21:07.439Z,10.49
2024-03-02T03:23:34.069Z,10.42
2024-03-02T03:26:00.719Z,10.55
2024-03-02T03:28:27.358Z,10.63
2024-03-02T03:30:55.296Z,10.56
2024-03-02T03:33:21.968Z,10.47
2024-03-02T03:35:49.229Z,10.40
2024-03-02T03:38:15.798Z,10.60
2024-03-02T03:40:42.466Z,10.60
2024-03-02T03:43:09.628Z,10.49
2024-03-02T03:45:36.218Z,10.58
2024-03-02T03:48:04.434Z,10.69
2024-03-02T03:50:31.046Z,10.70
2024-03-02T03:52:57.630Z,10.58
2024-03-02T03:55:24.159Z,10.57
2024-03-02T03:57:50.817Z,10.56
2024-03-02T04:00:17.794Z,10.60
2024-03-02T04:02:44.397Z,10.55
2024-03-02T04:05:12.855Z,10.51
2024-03-02T04:07:41.105Z,10.43
2024-03-02T04:10:09.184Z,10.56
2024-03-02T04:12:37.731Z,10.51
2024-03-02T04:15:07.181Z,10.60
2024-03-02T04:17:35.008Z,10.52
2024-03-02T04:20:01.833Z,10.62
2024-03-02T04:22:29.893Z,10.62
2024-03-02T04:24:56.957Z,10.48
2024-03-02T04:27:23.700Z,10.52
2024-03-02T04:29:50.770Z,10.66
2024-03-02T04:32:17.563Z,10.60
2024-03-02T04:34:44.353Z,10.59
2024-03-02T04:37:13.735Z,10.72
2024-03-02T04:39:41.765Z,10.65
2024-03-02T04:42:08.350Z,10.68
2024-03-02T04:44:34.894Z,10.64
2024-03-02T04:47:01.534Z,10.59
2024-03-02T04:49:28.290Z,10.38
2024-03-02T04:51:55.030Z,10.31
2024-03-02T04:54:21.691Z,10.41
2024-03-02T04:56:52.515Z,10.60
2024-03-02T04:59:19.332Z,10.35
2024-03-02T05:01:46.764Z,10.33
2024-03-02T05:04:13.279Z,10.34
2024-03-02T05:06:42.839Z,10.20
2024-03-02T05:09:09.515Z,10.50
2024-03-02T05:11:39.150Z,10.31
2024-03-02T05:14:07.798Z,10.45
2024-03-02T05:16:35.107Z,10.50
2024-03-02T05:19:01.755Z,10.52
2024-03-02T05:21:28.418Z,10.53
2024-03-02T05:23:55.040Z,10.47
2024-03-02T05:26:21.647Z,10.58
2024-03-02T05:28:48.373Z,10.35
2024-03-02T05:31:17.612Z,10.46
2024-03-02T05:33:44.303Z,10.44
2024-03-02T05:36:10.994Z,10.28
2024-03-02T05:38:37.702Z,10.32
2024-03-02T05:41:04.610Z,10.41
2024-03-02T05:43:31.125Z,10.48
2024-03-02T05:45:57.766Z,10.44
2024-03-02T05:48:25.744Z,10.28
2024-03-02T05:50:52.308Z,10.15
2024-03-02T05:53:18.893Z,10.21
2024-03-02T05:55:46.458Z,10.15
2024-03-02T05:58:27.036Z,10.30
2024-03-02T06:00:55.706Z,10.25
2024-03-02T06:03:22.411Z,10.11
2024-03-02T06:05:50.481Z,10.19
2024-03-02T06:08:17.115Z,10.10
2024-03-02T06:10:44.326Z,10.09
2024-03-02T06:13:10.916Z,10.00
2024-03-02T06:15:37.628Z,10.03
2024-03-02T06:18:04.858Z,10.03
2024-03-02T06:20:35.216Z,9.86
2024-03-02T06:23:05.027Z,9.84
2024-03-02T06:25:31.722Z,9.95
2024-03-02T06:27:58.343Z,10.01
2024-03-02T06:30:25.020Z,9.86
2024-03-02T06:32:51.697Z,9.95
2024-03-02T06:35:18.342Z,9.94
2024-03-02T06:37:44.992Z,9.81
2024-03-02T06:40:13.075Z,9.82
2024-03-02T06:42:39.669Z,9.88
2024-03-02T06:45:07.302Z,9.98
2024-03-02T06:47:33.954Z,9.98
2024-03-02T06:50:00.833Z,9.96
2024-03-02T06:52:27.762Z,9.97
2024-03-02T06:54:54.406Z,9.90
2024-03-02T06:57:22.648Z,10.02
2024-03-02T06:59:51.894Z,10.08
2024-03-02T07:02:18.541Z,10.09
2024-03-02T07:04:46.396Z,10.15
2024-03-02T07:07:13.036Z,10.27
2024-03-02T07:09:39.800Z,10.28
2024-03-02T07:12:06.673Z,10.48
2024-03-02T07:14:53.426Z,10.70
2024-03-02T07:17:19.999Z,10.68
2024-03-02T07:19:46.695Z,10.87
2024-03-02T07:22:13.296Z,10.83
2024-03-02T07:24:41.718Z,10.97
2024-03-02T07:27:08.475Z,11.04
2024-03-02T07:29:36.789Z,10.96
2024-03-02T07:32:03.685Z,11.17
2024-03-02T07:34:30.317Z,11.26
2024-03-02T07:36:57.069Z,11.35
2024-03-02T07:39:23.946Z,11.30
2024-03-02T07:41:50.689Z,11.31
2024-03-02T07:44:17.618Z,11.39
2024-03-02T07:46:47.439Z,11.46
2024-03-02T07:49:15.175Z,11.44
2024-03-02T07:51:41.722Z,11.44
2024-03-02T07:54:08.542Z,11.45
2024-03-02T07:56:35.321Z,11.44
2024-03-02T07:59:02.319Z,11.57
2024-03-02T08:01:29.092Z,11.31
2024-03-02T08:03:59.263Z,11.23
2024-03-02T08:06:28.564Z,11.38
2024-03-02T08:08:55.545Z,11.13
2024-03-02T08:11:22.479Z,11.33
2024-03-02T08:13:49.431Z,11.35
2024-03-02T08:16:16.205Z,11.42
2024-03-02T08:18:42.964Z,11.62
2024-03-02T08:21:10.978Z,11.81
2024-03-02T08:23:39.843Z,12.13
2024-03-02T08:26:07.722Z,12.79
2024-03-02T08:28:34.393Z,12.97
2024-03-02T08:31:01.102Z,12.83
2024-03-02T08:33:27.725Z,13.15
2024-03-02T08:35:54.372Z,13.31
2024-03-02T08:38:22.384Z,14.27
2024-03-02T08:40:48.983Z,14.30
2024-03-02T08:43:15.548Z,13.53
2024-03-02T08:45:42.736Z,13.60
2024-03-02T08:48:09.668Z,13.51
2024-03-02T08:50:36.621Z,13.47
2024-03-02T08:53:04.104Z,13.50
2024-03-02T08:55:32.089Z,13.57
2024-03-02T08:57:58.807Z,13.65
2024-03-02T09:00:26.202Z,13.54
2024-03-02T09:02:53.052Z,13.34
2024-03-02T09:05:19.629Z,13.71
2024-03-02T09:07:46.273Z,13.65
2024-03-02T09:10:13.563Z,13.80
2024-03-02T09:12:41.431Z,13.91
2024-03-02T09:15:08.865Z,13.90
2024-03-02T09:17:35.620Z,13.76
2024-03-02T09:20:02.223Z,13.83
2024-03-02T09:22:28.809Z,13.71
2024-03-02T09:24:55.494Z,13.72
2024-03-02T09:27:22.221Z,13.84
2024-03-02T09:29:50.150Z,13.65
2024-03-02T09:32:16.876Z,13.36
2024-03-02T09:34:45.120Z,13.44
2024-03-02T09:37:12.088Z,13.64
2024-03-02T09:39:38.680Z,13.73
2024-03-02T09:42:05.958Z,13.71
2024-03-02T09:44:32.394Z,13.40
2024-03-02T09:47:00.442Z,13.45
2024-03-02T09:49:27.011Z,13.74
2024-03-02T09:51:53.690Z,13.76
2024-03-02T09:54:22.965Z,13.58
2024-03-02T09:56:50.548Z,13.83
2024-03-02T09:59:20.187Z,13.93
2024-03-02T10:01:57.428Z,14.01
2024-03-02T10:04:26.668Z,13.74
2024-03-02T10:06:53.773Z,13.87
2024-03-02T10:09:28.247Z,13.94
2024-03-02T10:11:54.837Z,14.14
2024-03-02T10:14:23.383Z,14.40
2024-03-02T10:16:49.911Z,14.41
2024-03-02T10:19:20.524Z,14.38
2024-03-02T10:21:48.965Z,14.26
2024-03-02T10:24:15.674Z,14.41
2024-03-02T10:26:43.142Z,14.36
2024-03-02T10:29:11.254Z,14.29
2024-03-02T10:31:38.970Z,14.52
2024-03-02T10:34:05.932Z,14.74
2024-03-02T10:36:33.171Z,14.91
2024-03-02T10:39:01.145Z,14.72
2024-03-02T10:41:30.488Z,14.68
2024-03-02T10:44:00.530Z,14.83
2024-03-02T10:46:30.181Z,14.96
2024-03-02T10:48:56.903Z,15.16
2024-03-02T10:51:23.528Z,15.00
2024-03-02T10:53:50.269Z,15.13
2024-03-02T10:56:28.500Z,14.97
2024-03-02T10:58:56.828Z,15.20
2024-03-02T11:01:23.962Z,15.11
2024-03-02T11:03:50.653Z,15.54
2024-03-02T11:06:17.689Z,15.18
2024-03-02T11:08:45.693Z,15.22
2024-03-02T11:11:17.068Z,15.23
2024-03-02T11:13:50.332Z,15.30
2024-03-02T11:16:17.745Z,15.39
2024-03-02T11:18:44.792Z,15.42
2024-03-02T11:21:11.304Z,15.32
2024-03-02T11:23:37.983Z,15.39
2024-03-02T11:26:20.266Z,15.64
2024-03-02T11:28:48.470Z,15.57
2024-03-02T11:31:15.035Z,15.75
2024-03-02T11:33:41.648Z,15.58
2024-03-02T11:36:12.345Z,15.40
2024-03-02T11:38:39.533Z,15.51
2024-03-02T11:41:10.818Z,15.71
2024-03-02T11:43:40.938Z,15.43
2024-03-02T11:46:09.343Z,15.54
2024-03-02T11:48:36.947Z,15.63
2024-03-02T11:51:03.971Z,15.90
2024-03-02T11:53:35.507Z,15.72
2024-03-02T11:56:03.170Z,15.73
2024-03-02T11:58:30.387Z,15.77
2024-03-02T12:00:57.710Z,15.78
2024-03-02T12:03:27.037Z,15.81
2024-03-02T12:05:54.499Z,15.75
2024-03-02T12:08:22.369Z,15.66
2024-03-02T12:10:59.319Z,15.77
2024-03-02T12:13:35.088Z,15.80
2024-03-02T12:16:01.644Z,15.99
2024-03-02T12:18:29.594Z,16.08
2024-03-02T12:20:59.680Z,16.22
2024-03-02T12:23:26.550Z,16.09
2024-03-02T12:25:53.337Z,16.07
2024-03-02T12:28:20.421Z,16.29
2024-03-02T12:30:48.911Z,16.16
2024-03-02T12:33:15.655Z,16.15
2024-03-02T12:35:43.854Z,16.08
2024-03-02T12:38:11.943Z,16.20
2024-03-02T12:40:38.605Z,16.08
2024-03-02T12:43:06.401Z,16.03
2024-03-02T12:45:33.077Z,16.01
2024-03-02T12:48:01.125Z,16.25
2024-03-02T12:50:27.772Z,16.33
2024-03-02T12:52:56.166Z,16.33
2024-03-02T12:55:24.271Z,16.21
2024-03-02T12:57:51.871Z,16.51
2024-03-02T13:00:19.990Z,16.83
2024-03-02T13:02:46.931Z,16.97
2024-03-02T13:05:14.272Z,17.02
2024-03-02T13:07:41.994Z,17.14
2024-03-02T13:10:10.410Z,17.33
2024-03-02T13:12:38.295Z,17.11
2024-03-02T13:15:06.682Z,16.91
2024-03-02T13:17:37.870Z,16.89
2024-03-02T13:20:09.605Z,16.80
2024-03-02T13:22:36.856Z,16.59
2024-03-02T13:25:07.825Z,16.81
2024-03-02T13:27:36.169Z,16.71
2024-03-02T13:30:03.996Z,16.83
2024-03-02T13:32:30.702Z,16.71
2024-03-02T13:34:57.309Z,16.86
2024-03-02T13:37:24.068Z,16.92
2024-03-02T13:39:50.935Z,16.94
2024-03-02T13:42:17.820Z,16.80
2024-03-02T13:44:50.900Z,16.80
2024-03-02T13:47:17.496Z,16.67
2024-03-02T13:49:50.417Z,16.58
2024-03-02T13:52:19.737Z,16.62
2024-03-02T13:54:47.193Z,16.97
2024-03-02T13:57:14.365Z,17.28
2024-03-02T13:59:41.116Z,17.34
2024-03-02T14:02:10.096Z,17.26
2024-03-02T14:04:37.857Z,17.21
2024-03-02T14:07:05.312Z,17.19
2024-03-02T14:09:31.974Z,16.89
2024-03-02T14:11:58.716Z,16.51
2024-03-02T14:14:25.593Z,16.63
2024-03-02T14:16:53.315Z,16.57
2024-03-02T14:19:22.428Z,16.59
2024-03-02T14:21:49.304Z,16.84
2024-03-02T14:24:15.932Z,16.77
2024-03-02T14:26:42.654Z,16.65
2024-03-02T14:29:09.419Z,16.61
2024-03-02T14:31:35.995Z,16.68
2024-03-02T14:34:02.641Z,16.74
2024-03-02T14:36:30.746Z,16.86
2024-03-02T14:38:57.646Z,16.91
2024-03-02T14:41:25.770Z,16.77
2024-03-02T14:43:52.516Z,17.07
2024-03-02T14:46:19.380Z,17.03
2024-03-02T14:48:46.899Z,16.97
2024-03-02T14:51:14.465Z,17.09
2024-03-02T14:53:42.778Z,17.16
2024-03-02T14:56:09.532Z,17.21
2024-03-02T14:58:37.502Z,16.93
2024-03-02T15:01:04.769Z,16.86
2024-03-02T15:03:31.509Z,16.76
2024-03-02T15:05:58.201Z,16.77
2024-03-02T15:08:24.849Z,16.71
2024-03-02T15:10:53.226Z,16.56
2024-03-02T15:13:19.950Z,16.62
2024-03-02T15:15:47.239Z,16.74
2024-03-02T15:18:13.898Z,16.70
2024-03-02T15:20:41.920Z,16.90
2024-03-02T15:23:08.631Z,16.75
2024-03-02T15:25:35.195Z,16.81
2024-03-02T15:28:03.260Z,16.89
2024-03-02T15:30:29.974Z,17.13
2024-03-02T15:32:56.573Z,17.16
2024-03-02T15:35:23.238Z,17.20
2024-03-02T15:37:54.856Z,17.16
2024-03-02T15:40:21.850Z,17.18
2024-03-02T15:42:48.560Z,17.02
2024-03-02T15:45:16.532Z,17.11
2024-03-02T15:47:43.375Z,16.96
2024-03-02T15:50:10.726Z,16.88
2024-03-02T15:52:37.527Z,16.81
2024-03-02T15:55:07.344Z,16.76
2024-03-02T15:57:34.485Z,16.60
2024-03-02T16:00:02.915Z,16.59
2024-03-02T16:02:30.904Z,16.57
2024-03-02T16:04:57.456Z,16.44
2024-03-02T16:07:24.022Z,16.44
2024-03-02T16:09:50.624Z,16.45
2024-03-02T16:12:17.799Z,16.25
2024-03-02T16:14:44.151Z,16.35
2024-03-02T16:17:10.944Z,16.14
2024-03-02T16:19:41.927Z,16.23
2024-03-02T16:22:12.013Z,16.10
2024-03-02T16:24:38.809Z,16.13
2024-03-02T16:27:05.542Z,15.95
2024-03-02T16:29:32.548Z,15.99
2024-03-02T16:31:59.748Z,15.93
2024-03-02T16:34:26.293Z,16.01
2024-03-02T16:36:54.393Z,15.99
2024-03-02T16:39:20.937Z,15.83
2024-03-02T16:41:48.025Z,15.91
2024-03-02T16:44:15.158Z,15.97
2024-03-02T16:46:43.809Z,15.88
2024-03-02T16:49:10.416Z,15.81
2024-03-02T16:51:40.067Z,15.92
2024-03-02T16:54:08.102Z,15.82
2024-03-02T16:56:39.135Z,15.78
2024-03-02T16:59:05.708Z,15.88
2024-03-02T17:01:33.049Z,15.87
2024-03-02T17:04:00.628Z,15.72
2024-03-02T17:06:27.337Z,15.60
2024-03-02T17:08:53.917Z,15.52
2024-03-02T17:11:21.959Z,15.59
2024-03-02T17:13:48.561Z,15.50
2024-03-02T17:16:16.612Z,15.31
2024-03-02T17:18:43.231Z,15.28
2024-03-02T17:21:09.810Z,15.18
2024-03-02T17:23:36.489Z,15.10
2024-03-02T17:26:03.178Z,15.24
2024-03-02T17:28:33.057Z,15.01
2024-03-02T17:31:00.881Z,15.02
2024-03-02T17:33:27.587Z,15.10
2024-03-02T17:35:54.521Z,14.99
2024-03-02T17:38:21.359Z,15.18
2024-03-02T17:40:48.010Z,15.20
2024-03-02T17:43:14.761Z,14.91
2024-03-02T17:45:43.201Z,15.08
2024-03-02T17:48:10.282Z,15.00
2024-03-02T17:50:36.969Z,15.04
2024-03-02T17:53:03.726Z,15.12
2024-03-02T17:55:30.335Z,14.98
2024-03-02T17:57:57.225Z,14.98
2024-03-02T18:00:23.763Z,15.18
2024-03-02T18:02:51.689Z,15.21
2024-03-02T18:05:18.475Z,15.02
2024-03-02T18:07:45.074Z,15.08
2024-03-02T18:10:11.849Z,15.12
2024-03-02T18:12:39.511Z,15.09
2024-03-02T18:15:10.064Z,15.04
2024-03-02T18:17:36.817Z,15.07
2024-03-02T18:20:05.926Z,15.09
2024-03-02T18:22:33.326Z,14.99
2024-03-02T18:25:00.741Z,14.97
2024-03-02T18:27:27.623Z,15.14
2024-03-02T18:29:55.062Z,15.12
2024-03-02T18:32:21.958Z,15.08
2024-03-02T18:34:48.682Z,15.00
2024-03-02T18:37:17.930Z,15.00
2024-03-02T18:39:45.010Z,15.06
2024-03-02T18:42:11.551Z,15.17
2024-03-02T18:44:38.206Z,15.02
2024-03-02T18:47:04.874Z,15.05
2024-03-02T18:49:31.454Z,15.11
2024-03-02T18:51:58.107Z,14.97
2024-03-02T18:54:26.075Z,15.11
2024-03-02T18:56:52.735Z,15.04
2024-03-02T18:59:19.488Z,14.84
2024-03-02T19:01:46.237Z,14.97
2024-03-02T19:04:13.135Z,14.83
2024-03-02T19:06:39.724Z,14.74
2024-03-02T19:09:06.376Z,14.67
2024-03-02T19:11:34.320Z,14.76
2024-03-02T19:14:00.934Z,14.66
2024-03-02T19:16:27.709Z,14.66
2024-03-02T19:18:54.275Z,14.70
2024-03-02T19:21:20.901Z,14.68
2024-03-02T19:23:47.532Z,14.54
2024-03-02T19:26:19.797Z,14.51
2024-03-02T19:28:49.440Z,14.50
2024-03-02T19:31:16.157Z,14.44
2024-03-02T19:33:42.807Z,14.70
2024-03-02T19:36:09.576Z,14.53
2024-03-02T19:38:36.464Z,14.60
2024-03-02T19:41:03.226Z,14.56
2024-03-02T19:43:29.789Z,14.41
2024-03-02T19:45:57.738Z,14.42
2024-03-02T19:48:24.286Z,14.39
2024-03-02T19:50:51.440Z,14.63
2024-03-02T19:53:18.103Z,14.39
2024-03-02T19:55:45.550Z,14.52
2024-03-02T19:58:12.430Z,14.46
2024-03-02T20:00:39.370Z,14.46
2024-03-02T20:03:07.452Z,14.38
2024-03-02T20:05:33.975Z,14.44
2024-03-02T20:08:00.569Z,14.34
2024-03-02T20:10:27.182Z,14.19
2024-03-02T20:12:53.908Z,14.16
2024-03-02T20:15:20.893Z,14.14
2024-03-02T20:17:47.650Z,14.10
2024-03-02T20:20:17.048Z,14.14
2024-03-02T20:22:43.975Z,14.29
2024-03-02T20:25:14.649Z,14.32
2024-03-02T20:27:43.127Z,14.26
2024-03-02T20:30:11.364Z,14.25
2024-03-02T20:32:38.030Z,14.40
2024-03-02T20:35:05.123Z,14.39
2024-03-02T20:37:33.109Z,14.24
2024-03-02T20:40:00.292Z,14.30
2024-03-02T20:42:27.107Z,14.00
2024-03-02T20:44:53.868Z,14.18
2024-03-02T20:47:20.447Z,14.07
2024-03-02T20:49:47.019Z,13.92
2024-03-02T20:52:13.806Z,13.90
2024-03-02T20:54:41.864Z,14.01
2024-03-02T20:57:08.497Z,13.83
2024-03-02T20:59:35.465Z,13.88
2024-03-02T21:02:03.435Z,14.01
2024-03-02T21:04:30.061Z,14.06
2024-03-02T21:06:57.049Z,14.09
2024-03-02T21:09:23.524Z,14.19
2024-03-02T21:11:51.618Z,13.96
2024-03-02T21:14:18.255Z,14.02
2024-03-02T21:16:44.796Z,14.11
2024-03-02T21:19:12.856Z,14.00
2024-03-02T21:21:42.185Z,14.15
2024-03-02T21:24:08.818Z,14.10
2024-03-02T21:26:38.746Z,14.16
2024-03-02T21:29:06.711Z,14.06
2024-03-02T21:31:33.364Z,14.15
2024-03-02T21:34:00.001Z,14.19
2024-03-02T21:36:26.910Z,13.99
2024-03-02T21:38:53.513Z,13.92
2024-03-02T21:41:20.139Z,13.85
2024-03-02T21:43:46.729Z,13.92
2024-03-02T21:46:14.773Z,13.92
2024-03-02T21:48:41.679Z,13.93
2024-03-02T21:51:08.509Z,14.01
2024-03-02T21:53:36.896Z,13.99
2024-03-02T21:56:03.799Z,13.96
2024-03-02T21:58:30.388Z,13.96
2024-03-02T22:00:57.076Z,13.78
2024-03-02T22:03:24.983Z,13.75
2024-03-02T22:05:52.058Z,13.67
2024-03-02T22:08:18.907Z,13.68
2024-03-02T22:10:45.503Z,13.62
2024-03-02T22:13:12.150Z,13.70
2024-03-02T22:15:38.778Z,13.65
2024-03-02T22:18:05.683Z,13.54
2024-03-02T22:20:33.602Z,13.60
2024-03-02T22:23:00.119Z,13.73
2024-03-02T22:25:26.679Z,13.74
2024-03-02T22:27:56.969Z,13.88
2024-03-02T22:30:23.890Z,13.80
2024-03-02T22:32:50.665Z,13.84
2024-03-02T22:35:17.417Z,13.92
2024-03-02T22:37:45.395Z,13.92
2024-03-02T22:40:12.386Z,13.76
2024-03-02T22:42:39.037Z,13.86
2024-03-02T22:45:06.480Z,13.81
2024-03-02T22:47:33.194Z,13.81
2024-03-02T22:49:59.792Z,13.84
2024-03-02T22:52:26.477Z,13.90
2024-03-02T22:54:54.420Z,13.85
2024-03-02T22:57:21.121Z,13.97
2024-03-02T22:59:49.064Z,14.02
2024-03-02T23:02:17.942Z,14.10
2024-03-02T23:04:44.617Z,14.04
2024-03-02T23:07:11.270Z,14.07
2024-03-02T23:09:38.151Z,13.97
2024-03-02T23:12:06.665Z,13.94
2024-03-02T23:14:33.241Z,13.82
2024-03-02T23:16:59.872Z,13.73
2024-03-02T23:19:26.511Z,13.73
2024-03-02T23:21:53.191Z,13.64
2024-03-02T23:24:19.918Z,13.62
2024-03-02T23:26:46.475Z,13.59
2024-03-02T23:29:14.611Z,13.56
2024-03-02T23:31:41.157Z,13.58
2024-03-02T23:34:10.087Z,13.46
2024-03-02T23:36:38.294Z,13.49
2024-03-02T23:39:05.295Z,13.56
2024-03-02T23:41:31.936Z,13.71
2024-03-02T23:44:00.534Z,13.61
2024-03-02T23:46:28.974Z,13.64
2024-03-02T23:48:55.620Z,13.63
2024-03-02T23:51:22.303Z,13.76
2024-03-02T23:53:48.847Z,13.63
2024-03-02T23:56:15.510Z,13.87
2024-03-02T23:58:42.220Z,13.77
